Mena, Arkansas
Current Conditions -  °F | °C
As of 5:15 PM on Wednesday 26 Nov 2014 (Local Time) from KMEZ Reporting Station
Clear Clear  
Wind Chill: 52°   Ceiling: Unl
Heat Index: 52°   Visibility: 10mi
Dew Point: 32°   Wind: 7mph
Humidity: 47%   Direction: 260°W
Pressure: 30.17"   Gusts: 12mph
Location:  34.59°N, 94.24°W
Report Text: KMEZ 262315Z AUTO 26006G10KT 10SM CLR 11/00 A3017 RMK AO2
Loading
Personal Weather Stations






























Interactive Weather Map New forecast layout! Learn more

10-Day Weather Forecast

Advertisements
Track Severe Weather on mobile